Terminal Aerodrome Forecast
Issued by NWS Huntsville, AL

Home | Current Version | Previous Version | Text Only | Print | Product List | Glossary On
Versions: 1 2 3 4 5 6 7 8 9 10 11 12 13 14 15 16 17 18 19 20 21 22 23 24 25 26 27 28 29 30
000
FTUS44 KHUN 310526
TAFMSL
TAF
KMSL 310526Z 3106/0106 14005KT P6SM BKN120
      TEMPO 3107/3111 3SM BR BKN010
     FM311200 18008KT P6SM -SHRA OVC025
     FM311900 24010G20KT P6SM BKN040
      TEMPO 3119/3123 5SM -TSRA BR BKN025CB
     FM312300 VRB03KT P6SM BKN150=

USA.gov is the U.S. government's official web portal to all federal, state and local government web resources and services.